sensor_id;sensor_type;location;lat;lon;timestamp;P1;durP1;ratioP1;P2;durP2;ratioP2
6438;SDS011;3252;52.540;13.290;2023-07-31T00:00:21;6.23;;;1.83;;
6438;SDS011;3252;52.540;13.290;2023-07-31T00:02:42;8.90;;;1.77;;
6438;SDS011;3252;52.540;13.290;2023-07-31T00:04:48;5.93;;;1.80;;
6438;SDS011;3252;52.540;13.290;2023-07-31T00:06:57;6.00;;;1.80;;
6438;SDS011;3252;52.540;13.290;2023-07-31T00:09:08;8.57;;;1.93;;
6438;SDS011;3252;52.540;13.290;2023-07-31T00:11:18;6.00;;;2.27;;
6438;SDS011;3252;52.540;13.290;2023-07-31T00:13:24;3.63;;;1.90;;
6438;SDS011;3252;52.540;13.290;2023-07-31T00:16:12;7.53;;;1.93;;
6438;SDS011;3252;52.540;13.290;2023-07-31T00:18:47;4.73;;;1.70;;
6438;SDS011;3252;52.540;13.290;2023-07-31T00:21:13;4.70;;;1.40;;
6438;SDS011;3252;52.540;13.290;2023-07-31T00:23:30;5.97;;;2.03;;
6438;SDS011;3252;52.540;13.290;2023-07-31T00:25:52;7.03;;;1.60;;
6438;SDS011;3252;52.540;13.290;2023-07-31T00:28:04;5.87;;;1.83;;
6438;SDS011;3252;52.540;13.290;2023-07-31T00:32:50;5.53;;;1.70;;
6438;SDS011;3252;52.540;13.290;2023-07-31T00:35:01;6.17;;;2.07;;
6438;SDS011;3252;52.540;13.290;2023-07-31T00:37:25;7.03;;;2.23;;
6438;SDS011;3252;52.540;13.290;2023-07-31T00:39:36;8.53;;;2.10;;
6438;SDS011;3252;52.540;13.290;2023-07-31T00:41:59;8.33;;;2.40;;
6438;SDS011;3252;52.540;13.290;2023-07-31T00:44:19;7.83;;;2.00;;
6438;SDS011;3252;52.540;13.290;2023-07-31T00:46:48;5.17;;;1.90;;
6438;SDS011;3252;52.540;13.290;2023-07-31T00:49:11;4.53;;;2.00;;
6438;SDS011;3252;52.540;13.290;2023-07-31T00:51:18;5.03;;;1.80;;
6438;SDS011;3252;52.540;13.290;2023-07-31T00:53:25;8.73;;;2.10;;
6438;SDS011;3252;52.540;13.290;2023-07-31T00:55:30;6.03;;;2.03;;
6438;SDS011;3252;52.540;13.290;2023-07-31T00:57:40;13.17;;;2.70;;
6438;SDS011;3252;52.540;13.290;2023-07-31T00:59:54;7.10;;;2.10;;
6438;SDS011;3252;52.540;13.290;2023-07-31T01:02:14;7.83;;;2.27;;
6438;SDS011;3252;52.540;13.290;2023-07-31T01:04:33;4.87;;;1.70;;
6438;SDS011;3252;52.540;13.290;2023-07-31T01:06:47;4.47;;;1.60;;
6438;SDS011;3252;52.540;13.290;2023-07-31T01:09:33;7.00;;;2.23;;
6438;SDS011;3252;52.540;13.290;2023-07-31T01:12:01;6.03;;;2.03;;
6438;SDS011;3252;52.540;13.290;2023-07-31T01:14:13;7.40;;;2.30;;
6438;SDS011;3252;52.540;13.290;2023-07-31T01:16:32;3.67;;;1.57;;
6438;SDS011;3252;52.540;13.290;2023-07-31T01:18:52;8.13;;;2.20;;
6438;SDS011;3252;52.540;13.290;2023-07-31T01:24:33;5.93;;;2.10;;
6438;SDS011;3252;52.540;13.290;2023-07-31T01:26:56;7.80;;;2.17;;
6438;SDS011;3252;52.540;13.290;2023-07-31T01:29:20;9.70;;;2.57;;
6438;SDS011;3252;52.540;13.290;2023-07-31T01:31:41;4.93;;;1.87;;
6438;SDS011;3252;52.540;13.290;2023-07-31T01:33:58;5.73;;;1.70;;
6438;SDS011;3252;52.540;13.290;2023-07-31T01:36:03;6.60;;;2.30;;
6438;SDS011;3252;52.540;13.290;2023-07-31T01:38:18;6.30;;;2.10;;
6438;SDS011;3252;52.540;13.290;2023-07-31T01:40:33;8.93;;;2.37;;
6438;SDS011;3252;52.540;13.290;2023-07-31T01:42:43;5.67;;;1.90;;
6438;SDS011;3252;52.540;13.290;2023-07-31T01:44:47;6.63;;;2.30;;
6438;SDS011;3252;52.540;13.290;2023-07-31T01:47:00;3.67;;;1.93;;
6438;SDS011;3252;52.540;13.290;2023-07-31T01:49:10;6.47;;;2.10;;
6438;SDS011;3252;52.540;13.290;2023-07-31T01:53:49;6.43;;;2.07;;
6438;SDS011;3252;52.540;13.290;2023-07-31T01:56:17;7.43;;;2.20;;
6438;SDS011;3252;52.540;13.290;2023-07-31T01:58:58;6.40;;;2.53;;
6438;SDS011;3252;52.540;13.290;2023-07-31T02:01:15;4.10;;;2.00;;
6438;SDS011;3252;52.540;13.290;2023-07-31T02:03:22;4.53;;;2.20;;
6438;SDS011;3252;52.540;13.290;2023-07-31T02:05:35;5.93;;;2.00;;
6438;SDS011;3252;52.540;13.290;2023-07-31T02:07:46;3.90;;;2.00;;
6438;SDS011;3252;52.540;13.290;2023-07-31T02:10:02;3.77;;;1.90;;
6438;SDS011;3252;52.540;13.290;2023-07-31T02:12:11;8.23;;;2.33;;
6438;SDS011;3252;52.540;13.290;2023-07-31T02:14:23;6.77;;;1.93;;
6438;SDS011;3252;52.540;13.290;2023-07-31T02:16:33;5.47;;;2.00;;
6438;SDS011;3252;52.540;13.290;2023-07-31T02:18:46;9.40;;;2.27;;
6438;SDS011;3252;52.540;13.290;2023-07-31T02:20:59;6.10;;;2.20;;
6438;SDS011;3252;52.540;13.290;2023-07-31T02:23:06;6.80;;;2.37;;
6438;SDS011;3252;52.540;13.290;2023-07-31T02:25:17;6.27;;;2.40;;
6438;SDS011;3252;52.540;13.290;2023-07-31T02:27:32;5.47;;;2.37;;
6438;SDS011;3252;52.540;13.290;2023-07-31T02:29:40;5.70;;;2.17;;
6438;SDS011;3252;52.540;13.290;2023-07-31T02:31:51;7.80;;;2.23;;
6438;SDS011;3252;52.540;13.290;2023-07-31T02:34:18;5.40;;;1.97;;
6438;SDS011;3252;52.540;13.290;2023-07-31T02:36:41;6.70;;;2.60;;
6438;SDS011;3252;52.540;13.290;2023-07-31T02:39:07;4.77;;;2.53;;
6438;SDS011;3252;52.540;13.290;2023-07-31T02:41:31;3.93;;;2.03;;
6438;SDS011;3252;52.540;13.290;2023-07-31T02:43:56;8.23;;;2.20;;
6438;SDS011;3252;52.540;13.290;2023-07-31T02:46:28;6.63;;;2.60;;
6438;SDS011;3252;52.540;13.290;2023-07-31T02:49:19;6.40;;;2.40;;
6438;SDS011;3252;52.540;13.290;2023-07-31T02:51:46;5.43;;;2.17;;
6438;SDS011;3252;52.540;13.290;2023-07-31T02:54:13;5.37;;;2.37;;
6438;SDS011;3252;52.540;13.290;2023-07-31T02:56:33;5.80;;;2.30;;
6438;SDS011;3252;52.540;13.290;2023-07-31T02:59:06;5.10;;;2.30;;
6438;SDS011;3252;52.540;13.290;2023-07-31T03:01:15;8.60;;;2.50;;
6438;SDS011;3252;52.540;13.290;2023-07-31T03:03:23;8.93;;;2.60;;
6438;SDS011;3252;52.540;13.290;2023-07-31T03:05:45;7.43;;;2.70;;
6438;SDS011;3252;52.540;13.290;2023-07-31T03:07:56;5.30;;;2.40;;
6438;SDS011;3252;52.540;13.290;2023-07-31T03:10:26;7.70;;;2.53;;
6438;SDS011;3252;52.540;13.290;2023-07-31T03:16:02;5.57;;;2.43;;
6438;SDS011;3252;52.540;13.290;2023-07-31T03:18:19;6.27;;;2.40;;
6438;SDS011;3252;52.540;13.290;2023-07-31T03:20:32;8.83;;;3.10;;
6438;SDS011;3252;52.540;13.290;2023-07-31T03:22:45;10.10;;;2.87;;
6438;SDS011;3252;52.540;13.290;2023-07-31T03:24:56;9.27;;;3.10;;
6438;SDS011;3252;52.540;13.290;2023-07-31T03:27:09;7.47;;;2.80;;
6438;SDS011;3252;52.540;13.290;2023-07-31T03:29:16;11.73;;;2.90;;
6438;SDS011;3252;52.540;13.290;2023-07-31T03:32:04;6.97;;;2.87;;
6438;SDS011;3252;52.540;13.290;2023-07-31T03:34:21;8.23;;;3.03;;
6438;SDS011;3252;52.540;13.290;2023-07-31T03:36:50;7.53;;;2.90;;
6438;SDS011;3252;52.540;13.290;2023-07-31T03:39:08;9.10;;;3.00;;
6438;SDS011;3252;52.540;13.290;2023-07-31T03:41:47;6.30;;;3.10;;
6438;SDS011;3252;52.540;13.290;2023-07-31T03:44:15;10.00;;;2.83;;
6438;SDS011;3252;52.540;13.290;2023-07-31T03:46:35;12.00;;;3.17;;
6438;SDS011;3252;52.540;13.290;2023-07-31T03:48:47;5.73;;;2.93;;
6438;SDS011;3252;52.540;13.290;2023-07-31T03:50:52;8.03;;;3.00;;
6438;SDS011;3252;52.540;13.290;2023-07-31T03:53:06;8.93;;;3.07;;
6438;SDS011;3252;52.540;13.290;2023-07-31T03:55:23;11.63;;;3.07;;
6438;SDS011;3252;52.540;13.290;2023-07-31T03:57:32;12.30;;;3.17;;
6438;SDS011;3252;52.540;13.290;2023-07-31T03:59:50;8.77;;;3.30;;
6438;SDS011;3252;52.540;13.290;2023-07-31T04:02:01;11.13;;;3.40;;
6438;SDS011;3252;52.540;13.290;2023-07-31T04:04:13;8.70;;;3.73;;
6438;SDS011;3252;52.540;13.290;2023-07-31T04:06:17;7.30;;;3.07;;
6438;SDS011;3252;52.540;13.290;2023-07-31T04:08:39;8.43;;;3.40;;
6438;SDS011;3252;52.540;13.290;2023-07-31T04:11:21;9.17;;;3.77;;
6438;SDS011;3252;52.540;13.290;2023-07-31T04:13:30;11.00;;;3.50;;
6438;SDS011;3252;52.540;13.290;2023-07-31T04:15:42;6.60;;;2.93;;
6438;SDS011;3252;52.540;13.290;2023-07-31T04:17:59;10.90;;;3.57;;
6438;SDS011;3252;52.540;13.290;2023-07-31T04:20:16;7.27;;;3.20;;
6438;SDS011;3252;52.540;13.290;2023-07-31T04:22:32;9.63;;;3.33;;
6438;SDS011;3252;52.540;13.290;2023-07-31T04:24:38;9.27;;;3.03;;
6438;SDS011;3252;52.540;13.290;2023-07-31T04:27:02;7.67;;;3.20;;
6438;SDS011;3252;52.540;13.290;2023-07-31T04:32:22;8.07;;;3.63;;
6438;SDS011;3252;52.540;13.290;2023-07-31T04:35:10;10.47;;;3.33;;
6438;SDS011;3252;52.540;13.290;2023-07-31T04:37:43;10.40;;;3.93;;
6438;SDS011;3252;52.540;13.290;2023-07-31T04:39:58;9.43;;;3.60;;
6438;SDS011;3252;52.540;13.290;2023-07-31T04:42:16;11.87;;;3.10;;
6438;SDS011;3252;52.540;13.290;2023-07-31T04:44:30;7.30;;;3.37;;
6438;SDS011;3252;52.540;13.290;2023-07-31T04:46:56;7.43;;;3.30;;
6438;SDS011;3252;52.540;13.290;2023-07-31T04:49:19;8.93;;;3.40;;
6438;SDS011;3252;52.540;13.290;2023-07-31T04:51:47;10.23;;;4.10;;
6438;SDS011;3252;52.540;13.290;2023-07-31T04:54:02;11.73;;;5.80;;
6438;SDS011;3252;52.540;13.290;2023-07-31T04:56:13;12.20;;;6.50;;
6438;SDS011;3252;52.540;13.290;2023-07-31T04:58:23;9.27;;;3.73;;
6438;SDS011;3252;52.540;13.290;2023-07-31T05:00:31;9.00;;;3.30;;
6438;SDS011;3252;52.540;13.290;2023-07-31T05:02:42;7.23;;;3.03;;
6438;SDS011;3252;52.540;13.290;2023-07-31T05:05:01;13.93;;;3.03;;
6438;SDS011;3252;52.540;13.290;2023-07-31T05:07:14;8.20;;;3.30;;
6438;SDS011;3252;52.540;13.290;2023-07-31T05:09:33;7.90;;;3.20;;
6438;SDS011;3252;52.540;13.290;2023-07-31T05:11:57;9.30;;;2.93;;
6438;SDS011;3252;52.540;13.290;2023-07-31T05:14:06;10.90;;;3.47;;
6438;SDS011;3252;52.540;13.290;2023-07-31T05:16:13;15.63;;;8.17;;
6438;SDS011;3252;52.540;13.290;2023-07-31T05:18:22;11.00;;;4.20;;
6438;SDS011;3252;52.540;13.290;2023-07-31T05:20:54;12.17;;;3.83;;
6438;SDS011;3252;52.540;13.290;2023-07-31T05:23:57;11.17;;;3.40;;
6438;SDS011;3252;52.540;13.290;2023-07-31T05:26:11;8.20;;;3.40;;
6438;SDS011;3252;52.540;13.290;2023-07-31T05:28:39;6.37;;;3.37;;
6438;SDS011;3252;52.540;13.290;2023-07-31T05:30:48;8.27;;;3.13;;
6438;SDS011;3252;52.540;13.290;2023-07-31T05:32:59;9.97;;;3.77;;
6438;SDS011;3252;52.540;13.290;2023-07-31T05:35:03;10.73;;;3.70;;
6438;SDS011;3252;52.540;13.290;2023-07-31T05:37:17;11.20;;;3.20;;
6438;SDS011;3252;52.540;13.290;2023-07-31T05:39:35;9.30;;;3.40;;
6438;SDS011;3252;52.540;13.290;2023-07-31T05:41:39;8.83;;;3.20;;
6438;SDS011;3252;52.540;13.290;2023-07-31T05:43:47;8.17;;;3.50;;
6438;SDS011;3252;52.540;13.290;2023-07-31T05:45:50;7.73;;;3.13;;
6438;SDS011;3252;52.540;13.290;2023-07-31T05:47:57;11.50;;;3.50;;
6438;SDS011;3252;52.540;13.290;2023-07-31T05:50:00;9.80;;;3.30;;
6438;SDS011;3252;52.540;13.290;2023-07-31T05:52:03;8.93;;;3.10;;
6438;SDS011;3252;52.540;13.290;2023-07-31T05:54:05;7.70;;;3.10;;
6438;SDS011;3252;52.540;13.290;2023-07-31T05:56:09;8.77;;;3.10;;
6438;SDS011;3252;52.540;13.290;2023-07-31T05:58:11;9.50;;;3.07;;
6438;SDS011;3252;52.540;13.290;2023-07-31T06:00:15;5.93;;;2.83;;
6438;SDS011;3252;52.540;13.290;2023-07-31T06:02:27;7.57;;;3.10;;
6438;SDS011;3252;52.540;13.290;2023-07-31T06:04:33;8.10;;;2.80;;
6438;SDS011;3252;52.540;13.290;2023-07-31T06:06:43;8.57;;;3.40;;
6438;SDS011;3252;52.540;13.290;2023-07-31T06:08:51;11.03;;;3.00;;
6438;SDS011;3252;52.540;13.290;2023-07-31T06:11:21;7.67;;;2.90;;
6438;SDS011;3252;52.540;13.290;2023-07-31T06:13:23;10.87;;;3.10;;
6438;SDS011;3252;52.540;13.290;2023-07-31T06:15:27;11.40;;;3.47;;
6438;SDS011;3252;52.540;13.290;2023-07-31T06:17:30;8.70;;;2.93;;
6438;SDS011;3252;52.540;13.290;2023-07-31T06:19:33;8.07;;;2.93;;
6438;SDS011;3252;52.540;13.290;2023-07-31T06:21:36;9.60;;;3.20;;
6438;SDS011;3252;52.540;13.290;2023-07-31T06:23:39;10.97;;;3.50;;
6438;SDS011;3252;52.540;13.290;2023-07-31T06:25:41;9.90;;;3.03;;
6438;SDS011;3252;52.540;13.290;2023-07-31T06:27:44;7.20;;;2.80;;
6438;SDS011;3252;52.540;13.290;2023-07-31T06:29:47;8.40;;;3.17;;
6438;SDS011;3252;52.540;13.290;2023-07-31T06:31:52;6.33;;;2.90;;
6438;SDS011;3252;52.540;13.290;2023-07-31T06:33:55;9.17;;;3.13;;
6438;SDS011;3252;52.540;13.290;2023-07-31T06:35:58;7.40;;;3.00;;
6438;SDS011;3252;52.540;13.290;2023-07-31T06:38:01;6.90;;;2.80;;
6438;SDS011;3252;52.540;13.290;2023-07-31T06:40:04;9.73;;;2.83;;
6438;SDS011;3252;52.540;13.290;2023-07-31T06:42:09;6.60;;;2.60;;
6438;SDS011;3252;52.540;13.290;2023-07-31T06:44:12;10.27;;;3.40;;
6438;SDS011;3252;52.540;13.290;2023-07-31T06:46:16;7.10;;;2.70;;
6438;SDS011;3252;52.540;13.290;2023-07-31T06:48:21;7.17;;;2.90;;
6438;SDS011;3252;52.540;13.290;2023-07-31T06:50:24;10.37;;;2.90;;
6438;SDS011;3252;52.540;13.290;2023-07-31T06:52:28;4.83;;;2.40;;
6438;SDS011;3252;52.540;13.290;2023-07-31T06:54:31;8.53;;;2.83;;
6438;SDS011;3252;52.540;13.290;2023-07-31T06:56:34;10.30;;;3.23;;
6438;SDS011;3252;52.540;13.290;2023-07-31T06:58:37;8.57;;;3.00;;
6438;SDS011;3252;52.540;13.290;2023-07-31T07:00:40;6.50;;;2.80;;
6438;SDS011;3252;52.540;13.290;2023-07-31T07:02:46;10.80;;;2.73;;
6438;SDS011;3252;52.540;13.290;2023-07-31T07:04:51;7.00;;;2.77;;
6438;SDS011;3252;52.540;13.290;2023-07-31T07:06:55;5.77;;;2.57;;
6438;SDS011;3252;52.540;13.290;2023-07-31T07:08:58;4.70;;;2.37;;
6438;SDS011;3252;52.540;13.290;2023-07-31T07:11:00;5.03;;;2.30;;
6438;SDS011;3252;52.540;13.290;2023-07-31T07:13:04;8.30;;;2.67;;
6438;SDS011;3252;52.540;13.290;2023-07-31T07:15:07;8.17;;;2.60;;
6438;SDS011;3252;52.540;13.290;2023-07-31T07:17:11;5.00;;;2.47;;
6438;SDS011;3252;52.540;13.290;2023-07-31T07:19:14;7.00;;;2.50;;
6438;SDS011;3252;52.540;13.290;2023-07-31T07:21:19;6.03;;;2.40;;
6438;SDS011;3252;52.540;13.290;2023-07-31T07:23:22;6.97;;;2.50;;
6438;SDS011;3252;52.540;13.290;2023-07-31T07:25:25;5.67;;;2.30;;
6438;SDS011;3252;52.540;13.290;2023-07-31T07:27:28;10.20;;;2.30;;
6438;SDS011;3252;52.540;13.290;2023-07-31T07:29:31;7.93;;;2.70;;
6438;SDS011;3252;52.540;13.290;2023-07-31T07:31:35;5.60;;;2.20;;
6438;SDS011;3252;52.540;13.290;2023-07-31T07:33:41;6.27;;;2.20;;
6438;SDS011;3252;52.540;13.290;2023-07-31T07:35:47;5.10;;;2.00;;
6438;SDS011;3252;52.540;13.290;2023-07-31T07:37:51;9.90;;;2.70;;
6438;SDS011;3252;52.540;13.290;2023-07-31T07:39:54;7.60;;;2.40;;
6438;SDS011;3252;52.540;13.290;2023-07-31T07:41:58;5.80;;;2.57;;
6438;SDS011;3252;52.540;13.290;2023-07-31T07:44:01;6.80;;;2.53;;
6438;SDS011;3252;52.540;13.290;2023-07-31T07:46:05;6.33;;;2.50;;
6438;SDS011;3252;52.540;13.290;2023-07-31T07:48:07;6.83;;;2.90;;
6438;SDS011;3252;52.540;13.290;2023-07-31T07:50:10;5.60;;;2.40;;
6438;SDS011;3252;52.540;13.290;2023-07-31T07:52:13;6.40;;;2.70;;
6438;SDS011;3252;52.540;13.290;2023-07-31T07:54:30;7.00;;;2.10;;
6438;SDS011;3252;52.540;13.290;2023-07-31T07:56:34;7.80;;;2.53;;
6438;SDS011;3252;52.540;13.290;2023-07-31T07:58:36;6.73;;;2.50;;
6438;SDS011;3252;52.540;13.290;2023-07-31T08:00:39;5.50;;;2.23;;
6438;SDS011;3252;52.540;13.290;2023-07-31T08:02:41;6.03;;;2.50;;
6438;SDS011;3252;52.540;13.290;2023-07-31T08:04:44;5.70;;;2.43;;
6438;SDS011;3252;52.540;13.290;2023-07-31T08:06:47;6.10;;;2.60;;
6438;SDS011;3252;52.540;13.290;2023-07-31T08:08:49;7.07;;;2.23;;
6438;SDS011;3252;52.540;13.290;2023-07-31T08:10:54;6.97;;;2.73;;
6438;SDS011;3252;52.540;13.290;2023-07-31T08:12:57;6.93;;;2.50;;
6438;SDS011;3252;52.540;13.290;2023-07-31T08:14:59;6.20;;;3.00;;
6438;SDS011;3252;52.540;13.290;2023-07-31T08:17:03;7.40;;;2.80;;
6438;SDS011;3252;52.540;13.290;2023-07-31T08:19:08;4.73;;;2.13;;
6438;SDS011;3252;52.540;13.290;2023-07-31T08:21:11;4.97;;;2.37;;
6438;SDS011;3252;52.540;13.290;2023-07-31T08:23:14;4.93;;;2.40;;
6438;SDS011;3252;52.540;13.290;2023-07-31T08:25:17;5.03;;;2.23;;
6438;SDS011;3252;52.540;13.290;2023-07-31T08:27:21;4.83;;;2.03;;
6438;SDS011;3252;52.540;13.290;2023-07-31T08:29:24;6.43;;;2.10;;
6438;SDS011;3252;52.540;13.290;2023-07-31T08:31:27;5.10;;;2.10;;
6438;SDS011;3252;52.540;13.290;2023-07-31T08:33:30;3.43;;;1.83;;
6438;SDS011;3252;52.540;13.290;2023-07-31T08:35:32;5.17;;;2.20;;
6438;SDS011;3252;52.540;13.290;2023-07-31T08:37:35;3.47;;;2.10;;
6438;SDS011;3252;52.540;13.290;2023-07-31T08:39:37;4.83;;;2.03;;
6438;SDS011;3252;52.540;13.290;2023-07-31T08:41:40;4.93;;;2.10;;
6438;SDS011;3252;52.540;13.290;2023-07-31T08:43:45;4.37;;;1.80;;
6438;SDS011;3252;52.540;13.290;2023-07-31T08:45:49;3.97;;;2.10;;
6438;SDS011;3252;52.540;13.290;2023-07-31T08:47:52;3.80;;;2.20;;
6438;SDS011;3252;52.540;13.290;2023-07-31T08:49:55;6.27;;;2.20;;
6438;SDS011;3252;52.540;13.290;2023-07-31T08:51:59;4.67;;;2.10;;
6438;SDS011;3252;52.540;13.290;2023-07-31T08:54:05;3.73;;;1.67;;
6438;SDS011;3252;52.540;13.290;2023-07-31T08:56:08;2.47;;;1.60;;
6438;SDS011;3252;52.540;13.290;2023-07-31T08:58:12;5.00;;;1.90;;
6438;SDS011;3252;52.540;13.290;2023-07-31T09:00:17;4.90;;;1.80;;
6438;SDS011;3252;52.540;13.290;2023-07-31T09:02:23;4.73;;;1.60;;
6438;SDS011;3252;52.540;13.290;2023-07-31T09:04:33;5.83;;;1.97;;
6438;SDS011;3252;52.540;13.290;2023-07-31T09:06:36;2.97;;;1.70;;
6438;SDS011;3252;52.540;13.290;2023-07-31T09:08:39;3.40;;;1.60;;
6438;SDS011;3252;52.540;13.290;2023-07-31T09:10:45;3.27;;;1.60;;
6438;SDS011;3252;52.540;13.290;2023-07-31T09:12:47;8.27;;;1.77;;
6438;SDS011;3252;52.540;13.290;2023-07-31T09:14:52;6.40;;;1.83;;
6438;SDS011;3252;52.540;13.290;2023-07-31T09:16:58;5.97;;;2.00;;
6438;SDS011;3252;52.540;13.290;2023-07-31T09:19:01;3.33;;;1.60;;
6438;SDS011;3252;52.540;13.290;2023-07-31T09:21:06;3.43;;;1.67;;
6438;SDS011;3252;52.540;13.290;2023-07-31T09:23:09;4.27;;;1.67;;
6438;SDS011;3252;52.540;13.290;2023-07-31T09:25:15;2.57;;;1.47;;
6438;SDS011;3252;52.540;13.290;2023-07-31T09:27:19;3.03;;;1.50;;
6438;SDS011;3252;52.540;13.290;2023-07-31T09:29:21;2.37;;;1.60;;
6438;SDS011;3252;52.540;13.290;2023-07-31T09:31:41;4.00;;;1.60;;
6438;SDS011;3252;52.540;13.290;2023-07-31T09:33:55;2.90;;;1.47;;
6438;SDS011;3252;52.540;13.290;2023-07-31T09:38:30;2.03;;;1.40;;
6438;SDS011;3252;52.540;13.290;2023-07-31T09:40:34;2.07;;;1.20;;
6438;SDS011;3252;52.540;13.290;2023-07-31T09:42:37;4.73;;;1.70;;
6438;SDS011;3252;52.540;13.290;2023-07-31T09:44:40;2.97;;;1.50;;
6438;SDS011;3252;52.540;13.290;2023-07-31T09:46:43;3.47;;;1.50;;
6438;SDS011;3252;52.540;13.290;2023-07-31T09:48:46;3.57;;;1.67;;
6438;SDS011;3252;52.540;13.290;2023-07-31T09:50:51;2.20;;;1.30;;
6438;SDS011;3252;52.540;13.290;2023-07-31T09:52:53;1.80;;;1.23;;
6438;SDS011;3252;52.540;13.290;2023-07-31T09:54:57;1.67;;;1.20;;
6438;SDS011;3252;52.540;13.290;2023-07-31T09:57:00;2.20;;;1.30;;
6438;SDS011;3252;52.540;13.290;2023-07-31T09:59:02;4.00;;;1.20;;
6438;SDS011;3252;52.540;13.290;2023-07-31T10:01:06;2.40;;;1.37;;
6438;SDS011;3252;52.540;13.290;2023-07-31T10:03:10;2.63;;;1.50;;
6438;SDS011;3252;52.540;13.290;2023-07-31T10:05:15;1.93;;;1.40;;
6438;SDS011;3252;52.540;13.290;2023-07-31T10:07:20;2.70;;;1.50;;
6438;SDS011;3252;52.540;13.290;2023-07-31T10:09:26;5.10;;;2.00;;
6438;SDS011;3252;52.540;13.290;2023-07-31T10:11:37;5.73;;;2.03;;
6438;SDS011;3252;52.540;13.290;2023-07-31T10:13:44;7.33;;;1.90;;
6438;SDS011;3252;52.540;13.290;2023-07-31T10:15:48;3.40;;;1.53;;
6438;SDS011;3252;52.540;13.290;2023-07-31T10:17:52;4.57;;;1.80;;
6438;SDS011;3252;52.540;13.290;2023-07-31T10:19:58;3.63;;;2.10;;
6438;SDS011;3252;52.540;13.290;2023-07-31T10:22:02;5.87;;;2.20;;
6438;SDS011;3252;52.540;13.290;2023-07-31T10:24:07;5.13;;;2.47;;
6438;SDS011;3252;52.540;13.290;2023-07-31T10:26:10;6.63;;;2.37;;
6438;SDS011;3252;52.540;13.290;2023-07-31T10:28:14;7.00;;;2.53;;
6438;SDS011;3252;52.540;13.290;2023-07-31T10:30:17;7.73;;;2.77;;
6438;SDS011;3252;52.540;13.290;2023-07-31T10:32:25;4.30;;;2.50;;
6438;SDS011;3252;52.540;13.290;2023-07-31T10:34:29;4.77;;;2.70;;
6438;SDS011;3252;52.540;13.290;2023-07-31T10:36:32;7.80;;;3.33;;
6438;SDS011;3252;52.540;13.290;2023-07-31T10:38:36;7.23;;;3.40;;
6438;SDS011;3252;52.540;13.290;2023-07-31T10:40:40;7.00;;;3.03;;
6438;SDS011;3252;52.540;13.290;2023-07-31T10:42:47;6.63;;;3.10;;
6438;SDS011;3252;52.540;13.290;2023-07-31T10:44:51;4.97;;;2.93;;
6438;SDS011;3252;52.540;13.290;2023-07-31T10:46:58;7.33;;;3.20;;
6438;SDS011;3252;52.540;13.290;2023-07-31T10:49:02;6.33;;;2.87;;
6438;SDS011;3252;52.540;13.290;2023-07-31T10:51:06;37.00;;;4.60;;
6438;SDS011;3252;52.540;13.290;2023-07-31T10:53:11;8.13;;;3.33;;
6438;SDS011;3252;52.540;13.290;2023-07-31T10:55:28;6.03;;;3.10;;
6438;SDS011;3252;52.540;13.290;2023-07-31T10:57:34;5.37;;;2.80;;
6438;SDS011;3252;52.540;13.290;2023-07-31T10:59:38;8.13;;;3.10;;
6438;SDS011;3252;52.540;13.290;2023-07-31T11:01:51;5.07;;;2.50;;
6438;SDS011;3252;52.540;13.290;2023-07-31T11:03:56;5.43;;;3.00;;
6438;SDS011;3252;52.540;13.290;2023-07-31T11:06:00;8.23;;;3.07;;
6438;SDS011;3252;52.540;13.290;2023-07-31T11:08:09;5.80;;;3.17;;
6438;SDS011;3252;52.540;13.290;2023-07-31T11:10:15;6.13;;;3.23;;
6438;SDS011;3252;52.540;13.290;2023-07-31T11:12:20;8.27;;;3.30;;
6438;SDS011;3252;52.540;13.290;2023-07-31T11:14:25;8.67;;;3.20;;
6438;SDS011;3252;52.540;13.290;2023-07-31T11:16:28;8.57;;;3.17;;
6438;SDS011;3252;52.540;13.290;2023-07-31T11:18:31;7.40;;;3.53;;
6438;SDS011;3252;52.540;13.290;2023-07-31T11:20:35;7.00;;;3.10;;
6438;SDS011;3252;52.540;13.290;2023-07-31T11:22:38;7.80;;;3.10;;
6438;SDS011;3252;52.540;13.290;2023-07-31T11:24:41;7.53;;;3.07;;
6438;SDS011;3252;52.540;13.290;2023-07-31T11:26:49;8.53;;;2.90;;
6438;SDS011;3252;52.540;13.290;2023-07-31T11:28:52;10.47;;;3.93;;
6438;SDS011;3252;52.540;13.290;2023-07-31T11:30:56;5.87;;;3.60;;
6438;SDS011;3252;52.540;13.290;2023-07-31T11:32:59;6.57;;;3.37;;
6438;SDS011;3252;52.540;13.290;2023-07-31T11:35:04;5.97;;;3.30;;
6438;SDS011;3252;52.540;13.290;2023-07-31T11:37:09;8.13;;;3.70;;
6438;SDS011;3252;52.540;13.290;2023-07-31T11:39:11;6.13;;;3.17;;
6438;SDS011;3252;52.540;13.290;2023-07-31T11:41:14;8.33;;;3.50;;
6438;SDS011;3252;52.540;13.290;2023-07-31T11:43:18;8.73;;;3.50;;
6438;SDS011;3252;52.540;13.290;2023-07-31T11:45:24;7.70;;;3.30;;
6438;SDS011;3252;52.540;13.290;2023-07-31T11:47:31;7.63;;;3.10;;
6438;SDS011;3252;52.540;13.290;2023-07-31T11:49:36;8.10;;;3.57;;
6438;SDS011;3252;52.540;13.290;2023-07-31T11:51:38;8.73;;;2.93;;
6438;SDS011;3252;52.540;13.290;2023-07-31T11:53:49;7.07;;;3.30;;
6438;SDS011;3252;52.540;13.290;2023-07-31T11:55:54;11.57;;;3.33;;
6438;SDS011;3252;52.540;13.290;2023-07-31T11:57:57;9.30;;;3.10;;
6438;SDS011;3252;52.540;13.290;2023-07-31T12:00:01;5.70;;;3.00;;
6438;SDS011;3252;52.540;13.290;2023-07-31T12:02:05;6.73;;;3.10;;
6438;SDS011;3252;52.540;13.290;2023-07-31T12:04:10;11.67;;;3.23;;
6438;SDS011;3252;52.540;13.290;2023-07-31T12:06:13;6.60;;;3.23;;
6438;SDS011;3252;52.540;13.290;2023-07-31T12:08:16;5.93;;;3.23;;
6438;SDS011;3252;52.540;13.290;2023-07-31T12:10:29;6.77;;;3.23;;
6438;SDS011;3252;52.540;13.290;2023-07-31T12:12:32;9.17;;;3.60;;
6438;SDS011;3252;52.540;13.290;2023-07-31T12:14:35;9.20;;;3.30;;
6438;SDS011;3252;52.540;13.290;2023-07-31T12:16:45;7.47;;;2.80;;
6438;SDS011;3252;52.540;13.290;2023-07-31T12:18:49;11.13;;;3.30;;
6438;SDS011;3252;52.540;13.290;2023-07-31T12:20:55;7.93;;;2.80;;
6438;SDS011;3252;52.540;13.290;2023-07-31T12:22:59;11.17;;;3.50;;
6438;SDS011;3252;52.540;13.290;2023-07-31T12:25:01;8.27;;;3.30;;
6438;SDS011;3252;52.540;13.290;2023-07-31T12:27:08;6.50;;;3.17;;
6438;SDS011;3252;52.540;13.290;2023-07-31T12:29:15;7.43;;;3.03;;
6438;SDS011;3252;52.540;13.290;2023-07-31T12:31:18;5.40;;;2.67;;
6438;SDS011;3252;52.540;13.290;2023-07-31T12:33:23;8.17;;;2.90;;
6438;SDS011;3252;52.540;13.290;2023-07-31T12:35:30;7.90;;;3.10;;
6438;SDS011;3252;52.540;13.290;2023-07-31T12:37:39;7.30;;;2.80;;
6438;SDS011;3252;52.540;13.290;2023-07-31T12:39:43;9.57;;;3.10;;
6438;SDS011;3252;52.540;13.290;2023-07-31T12:41:46;6.83;;;3.13;;
6438;SDS011;3252;52.540;13.290;2023-07-31T12:43:50;7.07;;;2.63;;
6438;SDS011;3252;52.540;13.290;2023-07-31T12:45:54;6.93;;;2.90;;
6438;SDS011;3252;52.540;13.290;2023-07-31T12:47:57;10.10;;;2.63;;
6438;SDS011;3252;52.540;13.290;2023-07-31T12:50:02;5.20;;;3.00;;
6438;SDS011;3252;52.540;13.290;2023-07-31T12:52:06;7.13;;;3.00;;
6438;SDS011;3252;52.540;13.290;2023-07-31T12:54:10;7.87;;;2.90;;
6438;SDS011;3252;52.540;13.290;2023-07-31T12:56:16;11.60;;;3.00;;
6438;SDS011;3252;52.540;13.290;2023-07-31T12:58:19;7.63;;;2.80;;
6438;SDS011;3252;52.540;13.290;2023-07-31T13:00:23;6.07;;;3.10;;
6438;SDS011;3252;52.540;13.290;2023-07-31T13:02:26;9.93;;;3.40;;
6438;SDS011;3252;52.540;13.290;2023-07-31T13:04:28;9.30;;;2.77;;
6438;SDS011;3252;52.540;13.290;2023-07-31T13:06:31;3.83;;;2.10;;
6438;SDS011;3252;52.540;13.290;2023-07-31T13:08:34;4.47;;;2.10;;
6438;SDS011;3252;52.540;13.290;2023-07-31T13:10:42;4.67;;;2.47;;
6438;SDS011;3252;52.540;13.290;2023-07-31T13:12:46;5.33;;;2.40;;
6438;SDS011;3252;52.540;13.290;2023-07-31T13:14:50;7.63;;;2.77;;
6438;SDS011;3252;52.540;13.290;2023-07-31T13:16:53;6.03;;;2.30;;
6438;SDS011;3252;52.540;13.290;2023-07-31T13:18:56;4.30;;;2.40;;
6438;SDS011;3252;52.540;13.290;2023-07-31T13:20:59;4.00;;;2.17;;
6438;SDS011;3252;52.540;13.290;2023-07-31T13:23:02;5.33;;;2.57;;
6438;SDS011;3252;52.540;13.290;2023-07-31T13:25:05;4.43;;;2.40;;
6438;SDS011;3252;52.540;13.290;2023-07-31T13:27:10;5.77;;;2.10;;
6438;SDS011;3252;52.540;13.290;2023-07-31T13:29:13;6.53;;;2.73;;